createdAt,value
2023-04-21T00:00:59.961Z,34.37
2023-04-21T00:03:48.735Z,36.40
2023-04-21T00:06:37.404Z,31.97
2023-04-21T00:09:25.923Z,37.83
2023-04-21T00:12:14.362Z,34.43
2023-04-21T00:15:04.497Z,33.73
2023-04-21T00:17:53.072Z,37.93
2023-04-21T00:20:41.636Z,36.30
2023-04-21T00:23:30.195Z,39.10
2023-04-21T00:26:18.646Z,32.30
2023-04-21T00:29:07.176Z,36.93
2023-04-21T00:31:57.001Z,33.53
2023-04-21T00:34:45.586Z,30.03
2023-04-21T00:37:34.035Z,33.70
2023-04-21T00:40:22.519Z,35.37
2023-04-21T00:43:10.949Z,35.97
2023-04-21T00:45:59.470Z,31.33
2023-04-21T00:48:49.282Z,29.10
2023-04-21T00:51:38.583Z,32.43
2023-04-21T00:54:28.435Z,28.93
2023-04-21T00:57:17.481Z,30.23
2023-04-21T01:00:08.832Z,35.40
2023-04-21T01:02:57.511Z,32.97
2023-04-21T01:05:47.843Z,32.27
2023-04-21T01:08:36.818Z,35.07
2023-04-21T01:11:26.258Z,34.40
2023-04-21T01:14:14.665Z,29.13
2023-04-21T01:17:05.467Z,28.10
2023-04-21T01:19:54.760Z,34.20
2023-04-21T01:22:45.762Z,32.17
2023-04-21T01:25:34.345Z,32.77
2023-04-21T01:28:23.467Z,32.70
2023-04-21T01:31:11.914Z,34.60
2023-04-21T01:34:04.779Z,32.30
2023-04-21T01:36:53.251Z,34.43
2023-04-21T01:39:43.907Z,36.63
2023-04-21T01:42:35.753Z,34.57
2023-04-21T01:45:24.280Z,31.40
2023-04-21T01:48:12.811Z,35.67
2023-04-21T01:51:01.324Z,31.20
2023-04-21T01:53:49.786Z,32.30
2023-04-21T01:56:39.753Z,29.10
2023-04-21T01:59:28.311Z,29.73
2023-04-21T02:02:16.850Z,34.77
2023-04-21T02:05:06.112Z,36.53
2023-04-21T02:07:54.558Z,35.33
2023-04-21T02:10:43.061Z,35.33
2023-04-21T02:13:32.873Z,34.70
2023-04-21T02:16:21.581Z,30.40
2023-04-21T02:19:10.264Z,31.37
2023-04-21T02:21:58.830Z,36.10
2023-04-21T02:24:47.880Z,39.47
2023-04-21T02:27:36.348Z,30.20
2023-04-21T02:30:26.196Z,33.93
2023-04-21T02:33:14.738Z,31.00
2023-04-21T02:36:03.322Z,38.13
2023-04-21T02:38:52.182Z,34.53
2023-04-21T02:41:40.949Z,33.83
2023-04-21T02:44:29.431Z,36.13
2023-04-21T02:47:19.257Z,32.57
2023-04-21T02:50:08.486Z,32.63
2023-04-21T02:52:56.944Z,32.53
2023-04-21T02:55:45.406Z,32.93
2023-04-21T02:58:33.860Z,33.60
2023-04-21T03:01:22.350Z,32.60
2023-04-21T03:04:12.844Z,31.00
2023-04-21T03:07:01.469Z,34.33
2023-04-21T03:09:49.928Z,35.40
2023-04-21T03:12:38.399Z,30.37
2023-04-21T03:15:26.954Z,39.47
2023-04-21T03:18:15.630Z,33.80
2023-04-21T03:21:05.531Z,33.30
2023-04-21T03:23:54.129Z,34.20
2023-04-21T03:26:42.657Z,32.60
2023-04-21T03:29:31.132Z,34.10
2023-04-21T03:32:19.742Z,34.70
2023-04-21T03:35:08.554Z,35.30
2023-04-21T03:37:58.441Z,30.87
2023-04-21T03:40:46.929Z,30.43
2023-04-21T03:43:36.263Z,29.27
2023-04-21T03:46:25.528Z,33.80
2023-04-21T03:49:14.124Z,34.50
2023-04-21T03:52:02.766Z,32.20
2023-04-21T03:54:52.713Z,32.23
2023-04-21T03:57:41.958Z,28.00
2023-04-21T04:00:30.610Z,31.93
2023-04-21T04:03:21.735Z,29.87
2023-04-21T04:06:11.794Z,29.73
2023-04-21T04:09:02.480Z,31.20
2023-04-21T04:11:52.615Z,30.50
2023-04-21T04:14:41.089Z,35.20
2023-04-21T04:17:29.639Z,30.10
2023-04-21T04:20:18.284Z,31.30
2023-04-21T04:23:06.763Z,32.23
2023-04-21T04:25:56.154Z,29.53
2023-04-21T04:28:46.000Z,30.43
2023-04-21T04:31:34.757Z,26.10
2023-04-21T04:34:24.473Z,29.43
2023-04-21T04:37:13.361Z,25.93
2023-04-21T04:40:02.236Z,28.30
2023-04-21T04:42:51.435Z,29.83
2023-04-21T04:45:43.814Z,27.90
2023-04-21T04:48:32.599Z,24.70
2023-04-21T04:51:21.042Z,24.80
2023-04-21T04:54:09.581Z,24.20
2023-04-21T04:56:58.672Z,28.43
2023-04-21T04:59:47.448Z,26.03
2023-04-21T05:02:37.495Z,27.00
2023-04-21T05:05:26.175Z,24.57
2023-04-21T05:08:16.490Z,28.27
2023-04-21T05:11:06.798Z,27.73
2023-04-21T05:13:55.611Z,24.70
2023-04-21T05:16:44.495Z,27.13
2023-04-21T05:19:36.491Z,26.03
2023-04-21T05:22:25.096Z,26.87
2023-04-21T05:25:15.575Z,28.47
2023-04-21T05:28:04.047Z,33.03
2023-04-21T05:30:52.464Z,31.00
2023-04-21T05:33:41.022Z,38.63
2023-04-21T05:36:31.612Z,35.20
2023-04-21T05:39:20.343Z,33.10
2023-04-21T05:42:10.712Z,29.33
2023-04-21T05:44:59.140Z,28.37
2023-04-21T05:47:47.632Z,24.27
2023-04-21T05:50:36.082Z,27.40
2023-04-21T05:53:25.985Z,24.63
2023-04-21T05:56:14.863Z,24.70
2023-04-21T05:59:03.720Z,25.50
2023-04-21T06:01:55.122Z,31.40
2023-04-21T06:04:43.905Z,36.23
2023-04-21T06:07:32.696Z,46.70
2023-04-21T06:10:22.690Z,42.77
2023-04-21T06:13:11.136Z,30.10
2023-04-21T06:15:59.631Z,22.83
2023-04-21T06:18:48.109Z,22.17
2023-04-21T06:21:36.608Z,22.00
2023-04-21T06:24:25.949Z,22.57
2023-04-21T06:27:16.215Z,19.20
2023-04-21T06:30:05.175Z,22.20
2023-04-21T06:32:53.716Z,21.90
2023-04-21T06:35:42.216Z,21.57
2023-04-21T06:38:30.695Z,21.07
2023-04-21T06:41:19.207Z,20.17
2023-04-21T06:44:09.030Z,18.10
2023-04-21T06:46:57.492Z,18.30
2023-04-21T06:49:46.027Z,17.50
2023-04-21T06:52:34.565Z,17.83
2023-04-21T06:55:23.066Z,22.77
2023-04-21T06:58:11.789Z,17.00
2023-04-21T07:01:01.913Z,14.63
2023-04-21T07:03:50.901Z,16.10
2023-04-21T07:06:39.519Z,13.20
2023-04-21T07:09:28.700Z,14.13
2023-04-21T07:12:17.194Z,12.27
2023-04-21T07:15:06.827Z,12.47
2023-04-21T07:17:58.892Z,12.90
2023-04-21T07:20:47.570Z,12.90
2023-04-21T07:23:36.095Z,11.20
2023-04-21T07:26:24.634Z,10.93
2023-04-21T07:29:13.181Z,11.13
2023-04-21T07:32:01.902Z,11.70
2023-04-21T07:34:51.741Z,11.20
2023-04-21T07:37:40.531Z,11.07
2023-04-21T07:40:30.502Z,13.40
2023-04-21T07:43:19.645Z,11.07
2023-04-21T07:46:08.771Z,10.03
2023-04-21T07:48:58.515Z,12.33
2023-04-21T07:51:48.377Z,12.03
2023-04-21T07:54:36.821Z,11.20
2023-04-21T07:57:25.456Z,10.70
2023-04-21T08:00:15.191Z,10.57
2023-04-21T08:03:03.812Z,10.23
2023-04-21T08:05:52.516Z,9.60
2023-04-21T08:08:42.603Z,9.57
2023-04-21T08:11:31.159Z,10.33
2023-04-21T08:14:20.062Z,10.47
2023-04-21T08:17:08.810Z,9.20
2023-04-21T08:19:59.625Z,12.23
2023-04-21T08:22:48.628Z,11.27
2023-04-21T08:25:38.538Z,10.93
2023-04-21T08:28:27.147Z,10.43
2023-04-21T08:31:15.830Z,10.77
2023-04-21T08:34:04.460Z,7.10
2023-04-21T08:36:53.030Z,7.60
2023-04-21T08:39:42.014Z,7.93
2023-04-21T08:42:31.964Z,7.60
2023-04-21T08:45:20.609Z,7.63
2023-04-21T08:48:09.826Z,8.83
2023-04-21T08:50:59.195Z,8.73
2023-04-21T08:53:47.884Z,9.30
2023-04-21T08:56:36.391Z,9.70
2023-04-21T08:59:26.222Z,7.07
2023-04-21T09:02:16.360Z,8.33
2023-04-21T09:05:05.572Z,5.97
2023-04-21T09:07:56.137Z,7.00
2023-04-21T09:10:46.313Z,6.00
2023-04-21T09:13:36.329Z,5.27
2023-04-21T09:16:26.470Z,4.40
2023-04-21T09:19:16.188Z,5.77
2023-04-21T09:22:05.403Z,6.13
2023-04-21T09:24:59.879Z,5.40
2023-04-21T09:27:48.963Z,5.33
2023-04-21T09:30:38.012Z,5.20
2023-04-21T09:33:34.410Z,4.23
2023-04-21T09:36:29.297Z,5.33
2023-04-21T09:42:12.020Z,4.47
2023-04-21T09:47:57.750Z,4.43
2023-04-21T09:53:41.032Z,4.90
2023-04-21T09:56:31.234Z,6.07
2023-04-21T09:59:23.747Z,4.77
2023-04-21T10:02:13.474Z,5.30
2023-04-21T10:05:02.819Z,5.60
2023-04-21T10:07:53.342Z,4.43
2023-04-21T10:10:42.184Z,5.63
2023-04-21T10:13:31.048Z,4.63
2023-04-21T10:16:21.356Z,4.03
2023-04-21T10:19:25.336Z,4.10
2023-04-21T10:22:13.823Z,3.93
2023-04-21T10:25:05.705Z,3.70
2023-04-21T10:27:54.199Z,3.73
2023-04-21T10:30:42.686Z,4.13
2023-04-21T10:33:31.198Z,3.60
2023-04-21T10:36:26.313Z,3.83
2023-04-21T10:39:27.295Z,4.80
2023-04-21T10:42:28.211Z,4.17
2023-04-21T10:45:16.764Z,4.50
2023-04-21T10:48:14.472Z,3.80
2023-04-21T10:51:03.124Z,4.33
2023-04-21T10:53:51.588Z,4.40
2023-04-21T10:56:41.428Z,4.50
2023-04-21T10:59:31.359Z,5.33
2023-04-21T11:02:20.390Z,5.03
2023-04-21T11:05:10.382Z,4.90
2023-04-21T11:08:11.258Z,4.73
2023-04-21T11:10:59.860Z,5.77
2023-04-21T11:13:48.275Z,5.00
2023-04-21T11:16:38.213Z,5.17
2023-04-21T11:19:26.775Z,5.03
2023-04-21T11:22:15.460Z,7.20
2023-04-21T11:25:04.519Z,6.37
2023-04-21T11:27:56.749Z,5.87
2023-04-21T11:30:45.282Z,6.07
2023-04-21T11:33:39.064Z,6.23
2023-04-21T11:36:28.458Z,6.43
2023-04-21T11:39:21.751Z,6.33
2023-04-21T11:42:11.252Z,6.30
2023-04-21T11:45:00.554Z,6.23
2023-04-21T11:47:49.234Z,6.67
2023-04-21T11:50:39.214Z,7.40
2023-04-21T11:53:27.943Z,7.67
2023-04-21T11:56:19.896Z,7.13
2023-04-21T11:59:08.932Z,6.67
2023-04-21T12:01:57.758Z,6.53
2023-04-21T12:04:58.228Z,8.07
2023-04-21T12:07:48.943Z,5.67
2023-04-21T12:10:37.577Z,8.30
2023-04-21T12:13:26.400Z,6.47
2023-04-21T12:16:14.885Z,6.40
2023-04-21T12:19:03.452Z,6.20
2023-04-21T12:21:54.713Z,6.47
2023-04-21T12:24:44.923Z,7.57
2023-04-21T12:27:33.381Z,6.70
2023-04-21T12:30:22.287Z,7.60
2023-04-21T12:33:10.866Z,8.57
2023-04-21T12:36:00.082Z,7.83
2023-04-21T12:38:48.621Z,8.90
2023-04-21T12:41:38.576Z,7.17
2023-04-21T12:44:27.304Z,9.20
2023-04-21T12:47:15.976Z,8.10
2023-04-21T12:50:09.737Z,8.57
2023-04-21T12:52:58.186Z,8.53
2023-04-21T12:55:56.924Z,8.60
2023-04-21T12:58:53.944Z,8.60
2023-04-21T13:01:42.700Z,8.10
2023-04-21T13:04:32.273Z,8.00
2023-04-21T13:07:26.502Z,8.50
2023-04-21T13:10:15.047Z,8.27
2023-04-21T13:13:03.589Z,9.20
2023-04-21T13:15:53.812Z,7.97
2023-04-21T13:18:42.315Z,8.70
2023-04-21T13:21:32.725Z,7.23
2023-04-21T13:24:21.321Z,8.37
2023-04-21T13:27:09.829Z,8.43
2023-04-21T13:29:58.338Z,7.77
2023-04-21T13:32:50.511Z,8.13
2023-04-21T13:35:39.167Z,7.00
2023-04-21T13:38:27.614Z,6.50
2023-04-21T13:41:16.071Z,9.07
2023-04-21T13:44:05.159Z,7.60
2023-04-21T13:46:54.052Z,6.43
2023-04-21T13:49:44.003Z,7.07
2023-04-21T13:52:34.869Z,6.50
2023-04-21T13:55:23.332Z,7.10
2023-04-21T13:58:11.902Z,6.70
2023-04-21T14:01:00.374Z,6.87
2023-04-21T14:03:49.111Z,5.90
2023-04-21T14:06:39.192Z,6.40
2023-04-21T14:09:27.644Z,6.93
2023-04-21T14:12:16.112Z,9.73
2023-04-21T14:15:04.950Z,6.43
2023-04-21T14:17:53.790Z,5.37
2023-04-21T14:20:42.358Z,6.60
2023-04-21T14:23:32.171Z,5.87
2023-04-21T14:26:20.942Z,5.70
2023-04-21T14:29:09.456Z,5.40
2023-04-21T14:31:59.499Z,5.70
2023-04-21T14:34:48.294Z,6.73
2023-04-21T14:37:36.803Z,7.53
2023-04-21T14:40:26.828Z,5.37
2023-04-21T14:43:15.305Z,5.77
2023-04-21T14:46:04.268Z,6.10
2023-04-21T14:48:52.876Z,5.97
2023-04-21T14:51:42.080Z,10.10
2023-04-21T14:54:30.572Z,5.07
2023-04-21T14:57:21.852Z,6.03
2023-04-21T15:00:11.732Z,6.57
2023-04-21T15:03:00.364Z,5.10
2023-04-21T15:05:48.890Z,5.93
2023-04-21T15:08:37.556Z,9.67
2023-04-21T15:11:26.122Z,5.33
2023-04-21T15:14:15.964Z,6.13
2023-04-21T15:17:04.772Z,6.27
2023-04-21T15:19:53.380Z,5.37
2023-04-21T15:22:42.198Z,5.33
2023-04-21T15:25:31.363Z,5.77
2023-04-21T15:28:19.852Z,6.47
2023-04-21T15:31:10.399Z,5.30
2023-04-21T15:33:59.005Z,4.37
2023-04-21T15:36:48.034Z,5.27
2023-04-21T15:39:36.741Z,3.07
2023-04-21T15:42:25.486Z,2.67
2023-04-21T15:45:14.221Z,1.73
2023-04-21T15:48:04.457Z,3.77
2023-04-21T15:50:53.481Z,2.43
2023-04-21T15:53:47.427Z,2.70
2023-04-21T15:56:36.107Z,2.13
2023-04-21T15:59:26.034Z,2.17
2023-04-21T16:02:15.970Z,1.80
2023-04-21T16:05:07.248Z,2.30
2023-04-21T16:07:56.008Z,2.17
2023-04-21T16:10:44.861Z,2.90
2023-04-21T16:13:33.534Z,1.90
2023-04-21T16:16:22.486Z,2.87
2023-04-21T16:19:11.397Z,2.90
2023-04-21T16:22:03.824Z,2.73
2023-04-21T16:24:54.578Z,2.10
2023-04-21T16:27:43.348Z,2.83
2023-04-21T16:30:31.916Z,3.20
2023-04-21T16:33:20.769Z,3.17
2023-04-21T16:36:09.752Z,2.90
2023-04-21T16:38:59.821Z,3.30
2023-04-21T16:41:48.336Z,3.33
2023-04-21T16:44:37.178Z,3.80
2023-04-21T16:47:26.054Z,2.83
2023-04-21T16:50:14.711Z,2.67
2023-04-21T16:53:03.239Z,3.97
2023-04-21T16:55:53.181Z,5.27
2023-04-21T16:58:41.728Z,4.73
2023-04-21T17:01:30.479Z,3.40
2023-04-21T17:04:19.037Z,3.70
2023-04-21T17:07:07.615Z,5.13
2023-04-21T17:09:56.124Z,4.17
2023-04-21T17:12:46.253Z,4.47
2023-04-21T17:15:34.854Z,4.03
2023-04-21T17:18:23.361Z,4.13
2023-04-21T17:21:12.560Z,6.27
2023-04-21T17:24:01.096Z,4.43
2023-04-21T17:26:49.629Z,3.70
2023-04-21T17:29:39.474Z,4.20
2023-04-21T17:32:28.763Z,3.73
2023-04-21T17:35:18.705Z,4.40
2023-04-21T17:38:07.230Z,5.83
2023-04-21T17:40:56.021Z,6.70
2023-04-21T17:43:44.537Z,5.50
2023-04-21T17:46:34.453Z,3.70
2023-04-21T17:49:24.460Z,3.50
2023-04-21T17:52:16.191Z,2.73
2023-04-21T17:55:06.082Z,3.17
2023-04-21T17:57:54.585Z,2.70
2023-04-21T18:00:43.187Z,2.03
2023-04-21T18:03:33.131Z,3.50
2023-04-21T18:06:21.704Z,2.90
2023-04-21T18:09:10.405Z,2.80
2023-04-21T18:11:58.919Z,2.30
2023-04-21T18:14:47.717Z,2.20
2023-04-21T18:17:37.393Z,2.60
2023-04-21T18:20:27.260Z,2.70
2023-04-21T18:23:15.782Z,2.70
2023-04-21T18:26:04.373Z,2.20
2023-04-21T18:28:52.984Z,2.23
2023-04-21T18:31:41.430Z,2.43
2023-04-21T18:34:29.964Z,2.20
2023-04-21T18:37:19.761Z,6.83
2023-04-21T18:40:09.510Z,5.10
2023-04-21T18:42:58.060Z,4.00
2023-04-21T18:45:46.696Z,5.43
2023-04-21T18:48:36.388Z,5.97
2023-04-21T18:51:25.222Z,5.13
2023-04-21T18:54:15.194Z,6.90
2023-04-21T18:57:04.350Z,4.80
2023-04-21T18:59:53.410Z,7.87
2023-04-21T19:02:42.076Z,6.43
2023-04-21T19:05:31.792Z,6.47
2023-04-21T19:08:33.757Z,7.00
2023-04-21T19:11:29.630Z,8.10
2023-04-21T19:14:18.070Z,8.40
2023-04-21T19:17:06.794Z,7.33
2023-04-21T19:19:55.561Z,8.57
2023-04-21T19:22:44.393Z,8.37
2023-04-21T19:25:33.158Z,9.77
2023-04-21T19:28:23.078Z,14.87
2023-04-21T19:31:11.598Z,10.13
2023-04-21T19:34:00.102Z,11.87
2023-04-21T19:36:51.663Z,8.03
2023-04-21T19:39:40.147Z,7.13
2023-04-21T19:42:29.582Z,8.03
2023-04-21T19:45:19.406Z,8.23
2023-04-21T19:48:08.313Z,8.30
2023-04-21T19:50:56.837Z,6.20
2023-04-21T19:53:47.803Z,7.97
2023-04-21T19:56:40.260Z,7.00
2023-04-21T19:59:28.774Z,7.77
2023-04-21T20:02:19.539Z,6.43
2023-04-21T20:05:09.358Z,6.23
2023-04-21T20:07:57.974Z,5.57
2023-04-21T20:10:46.500Z,5.47
2023-04-21T20:13:35.201Z,6.13
2023-04-21T20:16:23.943Z,6.40
2023-04-21T20:19:15.052Z,6.17
2023-04-21T20:22:03.580Z,7.10
2023-04-21T20:24:53.912Z,6.60
2023-04-21T20:27:42.461Z,7.53
2023-04-21T20:30:30.985Z,8.20
2023-04-21T20:33:19.506Z,7.13
2023-04-21T20:36:09.381Z,7.97
2023-04-21T20:38:59.833Z,7.57
2023-04-21T20:41:57.939Z,8.00
2023-04-21T20:44:53.377Z,7.60
2023-04-21T20:47:41.911Z,10.00
2023-04-21T20:50:30.405Z,9.80
2023-04-21T20:53:20.920Z,10.20
2023-04-21T20:56:09.494Z,10.23
2023-04-21T20:58:57.955Z,8.13
2023-04-21T21:01:46.590Z,10.17
2023-04-21T21:04:35.235Z,8.10
2023-04-21T21:07:23.723Z,9.30
2023-04-21T21:10:14.961Z,10.23
2023-04-21T21:13:05.138Z,9.33
2023-04-21T21:15:53.644Z,8.60
2023-04-21T21:18:42.170Z,9.03
2023-04-21T21:21:30.824Z,8.87
2023-04-21T21:24:19.340Z,9.83
2023-04-21T21:27:09.302Z,10.73
2023-04-21T21:29:57.758Z,7.70
2023-04-21T21:32:47.576Z,9.77
2023-04-21T21:35:36.191Z,7.30
2023-04-21T21:38:24.675Z,7.80
2023-04-21T21:41:13.904Z,10.47
2023-04-21T21:44:04.068Z,9.23
2023-04-21T21:46:52.596Z,8.23
2023-04-21T21:49:41.193Z,7.50
2023-04-21T21:52:29.768Z,7.00
2023-04-21T21:55:18.254Z,9.37
2023-04-21T21:58:07.247Z,8.13
2023-04-21T22:00:57.194Z,7.60
2023-04-21T22:03:47.217Z,7.00
2023-04-21T22:06:35.989Z,6.90
2023-04-21T22:09:24.583Z,6.50
2023-04-21T22:12:13.193Z,11.50
2023-04-21T22:15:01.707Z,6.80
2023-04-21T22:17:51.567Z,6.60
2023-04-21T22:20:40.042Z,6.43
2023-04-21T22:23:28.572Z,8.67
2023-04-21T22:26:17.062Z,7.40
2023-04-21T22:29:05.919Z,8.50
2023-04-21T22:31:54.499Z,6.77
2023-04-21T22:34:44.833Z,7.20
2023-04-21T22:37:33.317Z,7.20
2023-04-21T22:40:21.964Z,7.57
2023-04-21T22:43:10.580Z,6.97
2023-04-21T22:45:59.090Z,6.67
2023-04-21T22:48:48.815Z,6.90
2023-04-21T22:51:38.620Z,8.00
2023-04-21T22:54:27.091Z,6.63
2023-04-21T22:57:15.787Z,9.90
2023-04-21T23:00:05.943Z,7.40
2023-04-21T23:02:54.625Z,7.00
2023-04-21T23:05:43.275Z,6.60
2023-04-21T23:08:33.114Z,6.87
2023-04-21T23:11:21.552Z,6.67
2023-04-21T23:14:10.194Z,10.50
2023-04-21T23:17:22.371Z,7.40
2023-04-21T23:20:11.654Z,8.43
2023-04-21T23:23:00.158Z,7.30
2023-04-21T23:25:49.962Z,8.47
2023-04-21T23:28:38.473Z,7.97
2023-04-21T23:31:27.000Z,10.13
2023-04-21T23:34:15.959Z,8.30
2023-04-21T23:37:04.607Z,8.80
2023-04-21T23:39:53.149Z,8.87
2023-04-21T23:42:47.068Z,10.07
2023-04-21T23:45:36.464Z,8.17
2023-04-21T23:48:24.933Z,7.63
2023-04-21T23:51:13.644Z,10.53
2023-04-21T23:54:02.781Z,6.97
2023-04-21T23:56:51.392Z,7.30
2023-04-21T23:59:41.594Z,8.10
